createdAt,value
2023-01-23T00:01:05.443Z,38.85
2023-01-23T00:03:33.363Z,38.17
2023-01-23T00:06:05.900Z,42.42
2023-01-23T00:08:35.757Z,41.35
2023-01-23T00:11:07.129Z,42.20
2023-01-23T00:13:36.965Z,40.20
2023-01-23T00:16:05.458Z,37.38
2023-01-23T00:18:32.174Z,41.70
2023-01-23T00:20:58.902Z,40.15
2023-01-23T00:23:25.401Z,38.85
2023-01-23T00:25:51.827Z,41.03
2023-01-23T00:28:18.324Z,41.75
2023-01-23T00:30:44.923Z,40.10
2023-01-23T00:33:14.193Z,41.00
2023-01-23T00:35:40.663Z,43.80
2023-01-23T00:38:07.279Z,43.67
2023-01-23T00:40:33.981Z,46.40
2023-01-23T00:43:00.443Z,42.83
2023-01-23T00:45:26.903Z,43.55
2023-01-23T00:47:53.375Z,43.75
2023-01-23T00:50:22.139Z,44.28
2023-01-23T00:52:51.076Z,43.03
2023-01-23T00:55:17.574Z,42.42
2023-01-23T00:57:44.070Z,40.88
2023-01-23T01:00:11.292Z,43.17
2023-01-23T01:02:37.931Z,38.92
2023-01-23T01:05:04.867Z,44.47
2023-01-23T01:07:31.400Z,40.85
2023-01-23T01:09:57.884Z,40.50
2023-01-23T01:12:24.372Z,42.08
2023-01-23T01:14:50.833Z,43.63
2023-01-23T01:17:17.459Z,42.53
2023-01-23T01:19:43.920Z,44.53
2023-01-23T01:22:12.810Z,44.13
2023-01-23T01:24:44.563Z,47.30
2023-01-23T01:27:11.120Z,40.03
2023-01-23T01:29:37.580Z,46.20
2023-01-23T01:32:04.365Z,43.95
2023-01-23T01:34:33.210Z,44.00
2023-01-23T01:37:00.358Z,44.10
2023-01-23T01:39:26.847Z,39.20
2023-01-23T01:41:53.340Z,44.15
2023-01-23T01:44:22.992Z,45.22
2023-01-23T01:46:52.294Z,41.60
2023-01-23T01:49:26.505Z,42.75
2023-01-23T01:52:03.174Z,39.63
2023-01-23T01:54:41.397Z,40.55
2023-01-23T01:57:14.410Z,37.83
2023-01-23T01:59:47.638Z,39.92
2023-01-23T02:02:25.140Z,40.15
2023-01-23T02:04:58.192Z,43.30
2023-01-23T02:07:35.358Z,43.35
2023-01-23T02:10:05.317Z,41.67
2023-01-23T02:12:35.227Z,42.78
2023-01-23T02:15:03.890Z,39.25
2023-01-23T02:17:31.420Z,43.05
2023-01-23T02:19:59.232Z,40.00
2023-01-23T02:22:43.349Z,41.30
2023-01-23T02:25:40.128Z,41.83
2023-01-23T02:28:07.186Z,38.80
2023-01-23T02:30:33.663Z,39.42
2023-01-23T02:33:32.499Z,40.80
2023-01-23T02:36:00.507Z,43.55
2023-01-23T02:38:32.397Z,42.67
2023-01-23T02:41:02.263Z,42.05
2023-01-23T02:43:35.097Z,39.03
2023-01-23T02:46:10.060Z,42.53
2023-01-23T02:48:40.092Z,41.05
2023-01-23T02:51:07.441Z,42.03
2023-01-23T02:53:33.938Z,40.00
2023-01-23T02:56:00.766Z,40.80
2023-01-23T02:58:45.652Z,41.30
2023-01-23T03:01:12.219Z,39.13
2023-01-23T03:03:41.597Z,42.22
2023-01-23T03:06:08.664Z,42.08
2023-01-23T03:08:36.714Z,41.30
2023-01-23T03:11:04.515Z,41.72
2023-01-23T03:13:31.496Z,39.72
2023-01-23T03:15:58.247Z,38.45
2023-01-23T03:18:27.657Z,38.97
2023-01-23T03:21:05.369Z,41.10
2023-01-23T03:23:31.864Z,38.95
2023-01-23T03:26:00.563Z,37.85
2023-01-23T03:29:02.510Z,42.45
2023-01-23T03:31:31.137Z,40.83
2023-01-23T03:33:57.726Z,39.15
2023-01-23T03:36:24.199Z,37.65
2023-01-23T03:39:08.955Z,41.25
2023-01-23T03:41:36.584Z,38.97
2023-01-23T03:44:05.317Z,38.70
2023-01-23T03:46:31.774Z,41.85
2023-01-23T03:48:58.260Z,41.35
2023-01-23T03:51:24.880Z,37.75
2023-01-23T03:53:51.335Z,39.10
2023-01-23T03:56:17.828Z,39.45
2023-01-23T03:58:44.720Z,42.45
2023-01-23T04:01:13.271Z,39.92
2023-01-23T04:03:39.766Z,40.85
2023-01-23T04:06:06.419Z,40.10
2023-01-23T04:08:32.861Z,40.08
2023-01-23T04:11:07.864Z,39.75
2023-01-23T04:13:34.403Z,41.60
2023-01-23T04:16:01.457Z,38.85
2023-01-23T04:18:30.514Z,41.50
2023-01-23T04:21:00.023Z,38.75
2023-01-23T04:23:26.879Z,40.53
2023-01-23T04:25:53.499Z,36.95
2023-01-23T04:28:20.312Z,38.55
2023-01-23T04:30:46.848Z,41.17
2023-01-23T04:33:13.343Z,40.35
2023-01-23T04:35:39.813Z,39.30
2023-01-23T04:38:06.268Z,39.28
2023-01-23T04:40:32.720Z,39.83
2023-01-23T04:42:59.175Z,43.13
2023-01-23T04:45:25.675Z,41.72
2023-01-23T04:47:52.213Z,41.10
2023-01-23T04:50:19.055Z,39.47
2023-01-23T04:52:45.828Z,43.13
2023-01-23T04:55:12.292Z,41.83
2023-01-23T04:57:38.735Z,37.05
2023-01-23T05:00:09.670Z,40.08
2023-01-23T05:02:36.276Z,36.85
2023-01-23T05:05:03.011Z,38.45
2023-01-23T05:07:29.595Z,40.42
2023-01-23T05:09:56.075Z,41.97
2023-01-23T05:12:22.564Z,37.20
2023-01-23T05:14:49.046Z,42.88
2023-01-23T05:17:15.666Z,40.63
2023-01-23T05:19:44.463Z,43.08
2023-01-23T05:22:11.003Z,48.03
2023-01-23T05:24:37.498Z,41.58
2023-01-23T05:27:03.962Z,44.38
2023-01-23T05:29:30.536Z,44.75
2023-01-23T05:31:57.033Z,44.70
2023-01-23T05:34:23.559Z,42.15
2023-01-23T05:36:50.012Z,47.30
2023-01-23T05:39:16.482Z,41.95
2023-01-23T05:41:43.009Z,46.28
2023-01-23T05:44:09.481Z,44.38
2023-01-23T05:46:36.013Z,46.55
2023-01-23T05:49:02.514Z,47.03
2023-01-23T05:51:32.464Z,47.28
2023-01-23T05:54:02.556Z,47.90
2023-01-23T05:56:29.486Z,49.92
2023-01-23T05:58:56.094Z,49.40
2023-01-23T06:01:23.579Z,46.17
2023-01-23T06:03:50.112Z,44.25
2023-01-23T06:06:16.652Z,47.53
2023-01-23T06:08:43.126Z,46.83
2023-01-23T06:11:09.706Z,50.15
2023-01-23T06:13:36.270Z,55.60
2023-01-23T06:16:02.785Z,51.88
2023-01-23T06:18:29.297Z,46.75
2023-01-23T06:21:00.820Z,51.83
2023-01-23T06:23:27.773Z,55.03
2023-01-23T06:25:54.465Z,53.88
2023-01-23T06:28:20.927Z,53.88
2023-01-23T06:30:47.491Z,55.13
2023-01-23T06:33:14.075Z,56.00
2023-01-23T06:35:40.544Z,53.03
2023-01-23T06:38:10.376Z,46.72
2023-01-23T06:40:36.859Z,50.55
2023-01-23T06:43:03.338Z,52.50
2023-01-23T06:45:29.817Z,55.20
2023-01-23T06:47:56.423Z,55.95
2023-01-23T06:50:23.263Z,52.75
2023-01-23T06:52:49.906Z,48.45
2023-01-23T06:55:16.495Z,48.70
2023-01-23T06:57:43.022Z,52.65
2023-01-23T07:00:10.154Z,54.05
2023-01-23T07:02:38.748Z,49.90
2023-01-23T07:05:05.619Z,46.45
2023-01-23T07:07:32.237Z,50.08
2023-01-23T07:09:59.718Z,50.40
2023-01-23T07:12:26.224Z,54.38
2023-01-23T07:14:52.663Z,49.05
2023-01-23T07:17:19.180Z,51.42
2023-01-23T07:19:45.650Z,50.33
2023-01-23T07:22:12.354Z,47.72
2023-01-23T07:24:39.034Z,56.08
2023-01-23T07:27:05.468Z,54.25
2023-01-23T07:29:31.936Z,57.08
2023-01-23T07:32:00.832Z,55.63
2023-01-23T07:34:27.806Z,56.03
2023-01-23T07:36:54.282Z,54.90
2023-01-23T07:39:20.736Z,53.05
2023-01-23T07:41:47.208Z,55.80
2023-01-23T07:44:20.905Z,64.15
2023-01-23T07:46:50.684Z,62.58
2023-01-23T07:49:17.376Z,56.75
2023-01-23T07:51:43.940Z,59.45
2023-01-23T07:54:10.421Z,56.90
2023-01-23T07:56:36.979Z,51.95
2023-01-23T07:59:03.599Z,52.55
2023-01-23T08:01:30.150Z,54.70
2023-01-23T08:03:56.817Z,52.70
2023-01-23T08:06:23.359Z,57.65
2023-01-23T08:08:52.858Z,55.03
2023-01-23T08:11:19.493Z,55.78
2023-01-23T08:13:49.261Z,51.25
2023-01-23T08:16:16.369Z,53.78
2023-01-23T08:18:42.864Z,46.50
2023-01-23T08:21:10.379Z,52.45
2023-01-23T08:23:36.961Z,50.78
2023-01-23T08:26:06.691Z,55.63
2023-01-23T08:28:36.182Z,57.42
2023-01-23T08:31:06.727Z,59.67
2023-01-23T08:33:34.648Z,68.25
2023-01-23T08:36:01.479Z,50.08
2023-01-23T08:38:28.032Z,50.55
2023-01-23T08:40:58.023Z,50.45
2023-01-23T08:43:24.503Z,47.13
2023-01-23T08:45:53.830Z,47.15
2023-01-23T08:48:21.974Z,50.67
2023-01-23T08:50:49.112Z,49.22
2023-01-23T08:53:16.113Z,49.28
2023-01-23T08:55:43.035Z,44.53
2023-01-23T08:58:13.013Z,49.67
2023-01-23T09:00:40.283Z,47.83
2023-01-23T09:03:07.007Z,46.97
2023-01-23T09:05:36.091Z,45.47
2023-01-23T09:08:02.605Z,47.17
2023-01-23T09:10:29.131Z,50.65
2023-01-23T09:12:55.849Z,48.90
2023-01-23T09:15:22.522Z,45.03
2023-01-23T09:17:50.005Z,46.88
2023-01-23T09:20:17.055Z,51.67
2023-01-23T09:22:43.608Z,53.00
2023-01-23T09:25:10.657Z,49.80
2023-01-23T09:27:37.145Z,47.30
2023-01-23T09:30:04.701Z,47.10
2023-01-23T09:32:31.199Z,50.88
2023-01-23T09:34:57.663Z,46.33
2023-01-23T09:37:24.131Z,50.42
2023-01-23T09:39:50.558Z,48.50
2023-01-23T09:42:37.406Z,51.63
2023-01-23T09:45:08.053Z,48.35
2023-01-23T09:48:00.443Z,50.40
2023-01-23T09:50:32.260Z,51.35
2023-01-23T09:53:08.526Z,49.30
2023-01-23T09:56:07.090Z,53.95
2023-01-23T09:58:44.273Z,51.33
2023-01-23T10:01:13.732Z,53.13
2023-01-23T10:03:41.380Z,54.38
2023-01-23T10:06:26.830Z,53.00
2023-01-23T10:09:12.416Z,48.42
2023-01-23T10:11:53.765Z,50.90
2023-01-23T10:14:26.575Z,46.25
2023-01-23T10:16:56.091Z,49.40
2023-01-23T10:19:45.206Z,45.88
2023-01-23T10:22:30.400Z,49.42
2023-01-23T10:25:02.598Z,50.80
2023-01-23T10:27:45.384Z,50.10
2023-01-23T10:30:12.031Z,44.40
2023-01-23T10:32:49.973Z,49.88
2023-01-23T10:35:29.767Z,44.90
2023-01-23T10:38:19.171Z,48.63
2023-01-23T10:41:07.634Z,51.22
2023-01-23T10:43:35.921Z,52.58
2023-01-23T10:46:10.188Z,50.33
2023-01-23T10:48:41.376Z,63.80
2023-01-23T10:51:26.838Z,55.90
2023-01-23T10:54:17.024Z,49.50
2023-01-23T10:57:20.562Z,50.55
2023-01-23T10:59:56.685Z,50.35
2023-01-23T11:02:35.030Z,46.05
2023-01-23T11:05:13.171Z,45.60
2023-01-23T11:07:40.441Z,52.63
2023-01-23T11:10:10.071Z,51.47
2023-01-23T11:12:52.577Z,50.38
2023-01-23T11:15:22.544Z,55.17
2023-01-23T11:17:50.923Z,49.20
2023-01-23T11:20:27.301Z,49.35
2023-01-23T11:23:03.217Z,50.03
2023-01-23T11:25:39.378Z,53.85
2023-01-23T11:28:30.867Z,51.80
2023-01-23T11:31:19.882Z,47.38
2023-01-23T11:34:11.438Z,51.83
2023-01-23T11:37:23.137Z,51.38
2023-01-23T11:40:05.465Z,47.40
2023-01-23T11:42:32.050Z,49.05
2023-01-23T11:45:00.369Z,48.00
2023-01-23T11:47:56.182Z,48.35
2023-01-23T11:50:54.993Z,50.10
2023-01-23T11:53:44.047Z,43.45
2023-01-23T11:56:39.764Z,45.53
2023-01-23T11:59:24.429Z,51.58
2023-01-23T12:04:58.585Z,70.95
2023-01-23T12:07:26.165Z,53.67
2023-01-23T12:10:26.626Z,57.72
2023-01-23T12:13:33.453Z,55.38
2023-01-23T12:16:24.922Z,47.67
2023-01-23T12:18:51.455Z,50.03
2023-01-23T12:21:20.728Z,45.33
2023-01-23T12:24:19.557Z,46.78
2023-01-23T12:27:00.464Z,45.75
2023-01-23T12:29:35.661Z,46.45
2023-01-23T12:32:33.236Z,47.20
2023-01-23T12:35:09.607Z,47.38
2023-01-23T12:37:53.003Z,51.22
2023-01-23T12:40:38.770Z,50.78
2023-01-23T12:43:14.389Z,45.72
2023-01-23T12:45:49.136Z,44.60
2023-01-23T12:48:32.372Z,44.15
2023-01-23T12:51:11.529Z,48.20
2023-01-23T12:53:41.805Z,45.40
2023-01-23T12:56:17.530Z,49.50
2023-01-23T12:59:00.229Z,47.67
2023-01-23T13:01:45.096Z,48.47
2023-01-23T13:04:26.718Z,51.55
2023-01-23T13:07:08.308Z,47.35
2023-01-23T13:09:52.405Z,47.35
2023-01-23T13:12:24.352Z,49.67
2023-01-23T13:15:17.185Z,47.70
2023-01-23T13:18:03.984Z,49.67
2023-01-23T13:20:51.594Z,46.00
2023-01-23T13:23:35.236Z,44.55
2023-01-23T13:26:15.651Z,50.70
2023-01-23T13:29:01.503Z,49.22
2023-01-23T13:31:53.019Z,52.58
2023-01-23T13:34:34.891Z,49.05
2023-01-23T13:37:26.531Z,50.47
2023-01-23T13:40:15.377Z,48.28
2023-01-23T13:42:41.872Z,48.88
2023-01-23T13:45:24.243Z,53.70
2023-01-23T14:21:57.083Z,52.85
2023-01-23T14:24:30.436Z,54.50
2023-01-23T14:27:07.266Z,51.03
2023-01-23T14:29:34.796Z,53.42
2023-01-23T14:32:01.283Z,53.92
2023-01-23T14:34:27.988Z,54.90
2023-01-23T14:37:10.692Z,58.85
2023-01-23T14:39:38.490Z,57.70
2023-01-23T14:42:11.482Z,54.38
2023-01-23T14:44:44.899Z,53.40
2023-01-23T14:47:39.414Z,58.85
2023-01-23T14:50:16.336Z,55.25
2023-01-23T14:52:42.907Z,50.70
2023-01-23T14:55:29.795Z,54.22
2023-01-23T14:57:59.559Z,53.83
2023-01-23T15:00:27.998Z,50.17
2023-01-23T15:02:56.322Z,50.45
2023-01-23T15:05:27.969Z,54.42
2023-01-23T15:08:05.945Z,57.28
2023-01-23T15:10:43.650Z,57.75
2023-01-23T15:13:13.379Z,54.60
2023-01-23T15:15:48.760Z,53.47
2023-01-23T15:18:24.124Z,53.20
2023-01-23T15:20:58.886Z,55.88
2023-01-23T15:23:31.230Z,85.78
2023-01-23T15:26:33.278Z,84.35
2023-01-23T15:29:09.032Z,80.35
2023-01-23T15:31:39.140Z,62.63
2023-01-23T15:34:15.028Z,77.88
2023-01-23T15:37:20.207Z,90.05
2023-01-23T15:39:46.729Z,83.63
2023-01-23T15:42:13.368Z,60.47
2023-01-23T15:44:41.314Z,57.92
2023-01-23T15:47:08.212Z,52.15
2023-01-23T15:49:37.164Z,55.38
2023-01-23T15:52:50.139Z,52.13
2023-01-23T15:55:18.058Z,51.20
2023-01-23T15:57:44.602Z,55.95
2023-01-23T16:00:24.797Z,53.28
2023-01-23T16:02:56.759Z,50.50
2023-01-23T16:05:26.627Z,54.95
2023-01-23T16:07:54.535Z,56.58
2023-01-23T16:10:24.404Z,56.92
2023-01-23T16:12:53.007Z,54.70
2023-01-23T16:15:22.271Z,49.65
2023-01-23T16:17:49.634Z,55.05
2023-01-23T16:20:21.440Z,51.03
2023-01-23T16:22:56.273Z,50.65
2023-01-23T16:25:43.002Z,49.78
2023-01-23T16:28:14.098Z,55.25
2023-01-23T16:30:42.932Z,51.80
2023-01-23T16:33:09.787Z,50.28
2023-01-23T16:35:36.835Z,50.85
2023-01-23T16:38:03.870Z,48.67
2023-01-23T16:40:31.615Z,49.70
2023-01-23T16:42:59.932Z,49.58
2023-01-23T16:45:28.806Z,47.13
2023-01-23T16:47:55.918Z,50.78
2023-01-23T16:50:45.908Z,49.00
2023-01-23T16:53:20.912Z,47.90
2023-01-23T16:55:47.628Z,47.65
2023-01-23T16:58:19.921Z,49.35
2023-01-23T17:00:46.839Z,47.13
2023-01-23T17:03:24.978Z,46.45
2023-01-23T17:05:54.109Z,43.53
2023-01-23T17:08:25.651Z,48.90
2023-01-23T17:11:02.190Z,47.53
2023-01-23T17:13:33.586Z,48.53
2023-01-23T17:16:01.045Z,53.95
2023-01-23T17:18:31.369Z,47.58
2023-01-23T17:20:58.783Z,46.13
2023-01-23T17:23:25.881Z,44.60
2023-01-23T17:26:01.408Z,48.25
2023-01-23T17:28:28.936Z,44.85
2023-01-23T17:30:58.090Z,47.95
2023-01-23T17:33:27.169Z,48.38
2023-01-23T17:35:54.268Z,48.33
2023-01-23T17:38:23.864Z,43.08
2023-01-23T17:40:51.629Z,45.15
2023-01-23T17:43:20.266Z,43.63
2023-01-23T17:45:51.387Z,46.33
2023-01-23T17:48:26.341Z,42.20
2023-01-23T17:50:53.158Z,48.88
2023-01-23T17:53:19.806Z,45.33
2023-01-23T17:55:49.242Z,45.78
2023-01-23T17:58:16.056Z,56.67
2023-01-23T18:00:48.914Z,53.55
2023-01-23T18:03:20.347Z,49.67
2023-01-23T18:05:47.032Z,42.72
2023-01-23T18:08:15.346Z,44.38
2023-01-23T18:10:44.960Z,44.55
2023-01-23T18:13:29.429Z,43.65
2023-01-23T18:16:08.268Z,50.28
2023-01-23T18:18:38.676Z,41.70
2023-01-23T18:21:07.620Z,44.53
2023-01-23T18:23:37.727Z,43.40
2023-01-23T18:26:10.372Z,47.35
2023-01-23T18:28:46.328Z,42.38
2023-01-23T18:31:31.868Z,44.90
2023-01-23T18:34:40.100Z,48.22
2023-01-23T18:37:25.414Z,49.45
2023-01-23T18:40:00.700Z,40.72
2023-01-23T18:42:34.933Z,46.22
2023-01-23T18:45:11.104Z,47.88
2023-01-23T18:47:38.151Z,55.05
2023-01-23T18:50:06.620Z,60.53
2023-01-23T18:53:19.692Z,57.25
2023-01-23T18:55:58.970Z,61.63
2023-01-23T18:58:37.775Z,55.70
2023-01-23T19:01:16.267Z,52.63
2023-01-23T19:03:47.321Z,47.70
2023-01-23T19:06:19.982Z,45.83
2023-01-23T19:08:47.929Z,45.38
2023-01-23T19:11:33.009Z,43.33
2023-01-23T19:14:21.514Z,43.90
2023-01-23T19:17:13.722Z,46.85
2023-01-23T19:19:55.435Z,48.22
2023-01-23T19:22:22.335Z,47.75
2023-01-23T19:24:51.820Z,44.50
2023-01-23T19:27:21.805Z,41.65
2023-01-23T19:29:48.553Z,44.95
2023-01-23T19:32:15.710Z,43.17
2023-01-23T19:34:45.058Z,46.63
2023-01-23T19:37:11.764Z,47.45
2023-01-23T19:39:40.569Z,46.50
2023-01-23T19:42:12.909Z,50.13
2023-01-23T19:44:39.463Z,46.20
2023-01-23T19:47:06.772Z,47.92
2023-01-23T19:49:33.368Z,51.50
2023-01-23T19:52:00.070Z,51.22
2023-01-23T19:54:26.710Z,49.72
2023-01-23T19:56:53.324Z,49.15
2023-01-23T19:59:20.855Z,46.97
2023-01-23T20:01:50.684Z,51.45
2023-01-23T20:04:20.636Z,49.78
2023-01-23T20:06:49.056Z,56.38
2023-01-23T20:09:16.122Z,47.88
2023-01-23T20:11:43.993Z,53.47
2023-01-23T20:14:11.118Z,49.83
2023-01-23T20:16:42.893Z,51.47
2023-01-23T20:19:13.472Z,47.17
2023-01-23T20:21:40.122Z,44.17
2023-01-23T20:24:08.156Z,44.92
2023-01-23T20:26:34.959Z,41.22
2023-01-23T20:29:02.124Z,45.58
2023-01-23T20:31:29.182Z,46.63
2023-01-23T20:33:55.880Z,45.15
2023-01-23T20:36:22.513Z,47.35
2023-01-23T20:38:49.047Z,52.58
2023-01-23T20:41:18.902Z,45.20
2023-01-23T20:43:45.990Z,51.00
2023-01-23T20:46:14.385Z,47.35
2023-01-23T20:48:46.314Z,51.47
2023-01-23T20:51:15.261Z,49.33
2023-01-23T20:53:42.373Z,55.45
2023-01-23T20:56:17.521Z,51.42
2023-01-23T20:59:07.161Z,53.65
2023-01-23T21:01:54.932Z,54.70
2023-01-23T21:04:24.960Z,54.97
2023-01-23T21:06:52.093Z,53.13
2023-01-23T21:09:21.844Z,51.55
2023-01-23T21:11:50.625Z,51.63
2023-01-23T21:14:17.348Z,52.15
2023-01-23T21:16:44.001Z,49.28
2023-01-23T21:19:12.980Z,48.13
2023-01-23T21:21:39.857Z,51.47
2023-01-23T21:24:07.368Z,54.65
2023-01-23T21:26:35.476Z,53.58
2023-01-23T21:29:02.372Z,49.60
2023-01-23T21:31:34.784Z,50.70
2023-01-23T21:34:04.689Z,49.53
2023-01-23T21:36:31.596Z,47.38
2023-01-23T21:38:58.899Z,50.38
2023-01-23T21:41:25.603Z,50.67
2023-01-23T21:43:52.245Z,52.28
2023-01-23T21:46:18.869Z,53.38
2023-01-23T21:48:45.501Z,51.88
2023-01-23T21:51:14.777Z,54.05
2023-01-23T21:53:43.460Z,52.42
2023-01-23T21:56:12.373Z,52.55
2023-01-23T21:58:39.243Z,50.53
2023-01-23T22:01:29.330Z,49.75
2023-01-23T22:03:55.911Z,50.60
2023-01-23T22:06:22.990Z,57.60
2023-01-23T22:08:49.861Z,53.75
2023-01-23T22:11:16.465Z,53.00
2023-01-23T22:13:43.032Z,52.92
2023-01-23T22:16:10.996Z,54.72
2023-01-23T22:18:37.963Z,55.30
2023-01-23T22:21:06.131Z,60.55
2023-01-23T22:23:33.412Z,53.40
2023-01-23T22:26:02.842Z,53.25
2023-01-23T22:28:29.768Z,52.90
2023-01-23T22:30:56.913Z,49.60
2023-01-23T22:33:25.696Z,55.10
2023-01-23T22:35:52.315Z,54.40
2023-01-23T22:38:18.998Z,52.88
2023-01-23T22:40:45.617Z,52.60
2023-01-23T22:43:12.231Z,53.40
2023-01-23T22:45:38.825Z,70.30
2023-01-23T22:48:05.702Z,62.58
2023-01-23T22:50:32.258Z,62.08
2023-01-23T22:53:01.305Z,62.22
2023-01-23T22:55:27.835Z,53.10
2023-01-23T22:57:54.383Z,60.42
2023-01-23T23:00:21.198Z,63.13
2023-01-23T23:02:47.943Z,59.92
2023-01-23T23:05:14.530Z,54.95
2023-01-23T23:07:41.288Z,61.10
2023-01-23T23:10:09.695Z,55.80
2023-01-23T23:12:36.273Z,56.78
2023-01-23T23:15:03.246Z,57.65
2023-01-23T23:17:30.075Z,55.67
2023-01-23T23:19:57.914Z,58.35
2023-01-23T23:22:24.491Z,59.15
2023-01-23T23:24:51.066Z,59.22
2023-01-23T23:27:17.632Z,56.25
2023-01-23T23:29:44.217Z,59.33
2023-01-23T23:32:10.795Z,55.53
2023-01-23T23:34:40.095Z,54.72
2023-01-23T23:37:06.646Z,54.17
2023-01-23T23:39:33.200Z,61.83
2023-01-23T23:41:59.742Z,55.58
2023-01-23T23:44:26.332Z,56.05
2023-01-23T23:46:52.992Z,62.92
2023-01-23T23:49:19.573Z,54.70
2023-01-23T23:51:46.111Z,56.78
2023-01-23T23:54:12.677Z,57.53
2023-01-23T23:56:39.251Z,56.17
2023-01-23T23:59:16.372Z,62.40
